sensor_id;sensor_type;location;lat;lon;timestamp;P1;durP1;ratioP1;P2;durP2;ratioP2
28074;SDS011;15385;51.088;6.572;2023-04-15T00:01:35;10.75;;;4.93;;
28074;SDS011;15385;51.088;6.572;2023-04-15T00:04:06;10.68;;;4.90;;
28074;SDS011;15385;51.088;6.572;2023-04-15T00:06:36;7.18;;;4.20;;
28074;SDS011;15385;51.088;6.572;2023-04-15T00:09:08;9.50;;;4.55;;
28074;SDS011;15385;51.088;6.572;2023-04-15T00:11:39;7.40;;;4.22;;
28074;SDS011;15385;51.088;6.572;2023-04-15T00:16:40;4.80;;;3.70;;
28074;SDS011;15385;51.088;6.572;2023-04-15T00:21:42;7.53;;;3.90;;
28074;SDS011;15385;51.088;6.572;2023-04-15T00:24:12;7.95;;;4.22;;
28074;SDS011;15385;51.088;6.572;2023-04-15T00:26:43;7.18;;;4.00;;
28074;SDS011;15385;51.088;6.572;2023-04-15T00:29:13;9.27;;;3.90;;
28074;SDS011;15385;51.088;6.572;2023-04-15T00:31:44;7.65;;;3.67;;
28074;SDS011;15385;51.088;6.572;2023-04-15T00:34:15;10.10;;;4.30;;
28074;SDS011;15385;51.088;6.572;2023-04-15T00:36:45;7.93;;;4.22;;
28074;SDS011;15385;51.088;6.572;2023-04-15T00:39:16;6.38;;;3.80;;
28074;SDS011;15385;51.088;6.572;2023-04-15T00:41:47;7.93;;;4.40;;
28074;SDS011;15385;51.088;6.572;2023-04-15T00:44:18;7.38;;;4.18;;
28074;SDS011;15385;51.088;6.572;2023-04-15T00:46:49;6.90;;;3.97;;
28074;SDS011;15385;51.088;6.572;2023-04-15T00:49:20;8.80;;;4.00;;
28074;SDS011;15385;51.088;6.572;2023-04-15T00:54:21;8.75;;;4.28;;
28074;SDS011;15385;51.088;6.572;2023-04-15T00:56:52;7.90;;;3.95;;
28074;SDS011;15385;51.088;6.572;2023-04-15T00:59:22;9.23;;;4.05;;
28074;SDS011;15385;51.088;6.572;2023-04-15T01:01:53;8.57;;;4.18;;
28074;SDS011;15385;51.088;6.572;2023-04-15T01:04:24;8.65;;;4.60;;
28074;SDS011;15385;51.088;6.572;2023-04-15T01:09:26;6.75;;;4.22;;
28074;SDS011;15385;51.088;6.572;2023-04-15T01:11:56;8.52;;;4.53;;
28074;SDS011;15385;51.088;6.572;2023-04-15T01:14:27;7.35;;;3.85;;
28074;SDS011;15385;51.088;6.572;2023-04-15T01:19:28;10.87;;;4.33;;
28074;SDS011;15385;51.088;6.572;2023-04-15T01:22:00;10.13;;;4.50;;
28074;SDS011;15385;51.088;6.572;2023-04-15T01:24:32;9.43;;;4.60;;
28074;SDS011;15385;51.088;6.572;2023-04-15T01:27:03;6.82;;;4.53;;
28074;SDS011;15385;51.088;6.572;2023-04-15T01:29:36;9.18;;;4.20;;
28074;SDS011;15385;51.088;6.572;2023-04-15T01:32:07;5.75;;;4.15;;
28074;SDS011;15385;51.088;6.572;2023-04-15T01:34:38;8.73;;;5.10;;
28074;SDS011;15385;51.088;6.572;2023-04-15T01:37:08;7.25;;;4.40;;
28074;SDS011;15385;51.088;6.572;2023-04-15T01:39:39;11.05;;;4.60;;
28074;SDS011;15385;51.088;6.572;2023-04-15T01:44:40;7.33;;;3.90;;
28074;SDS011;15385;51.088;6.572;2023-04-15T01:47:11;10.82;;;4.53;;
28074;SDS011;15385;51.088;6.572;2023-04-15T01:49:41;8.27;;;4.60;;
28074;SDS011;15385;51.088;6.572;2023-04-15T01:52:12;9.05;;;5.22;;
28074;SDS011;15385;51.088;6.572;2023-04-15T01:54:43;7.28;;;4.43;;
28074;SDS011;15385;51.088;6.572;2023-04-15T01:57:14;8.43;;;4.28;;
28074;SDS011;15385;51.088;6.572;2023-04-15T01:59:44;6.50;;;4.38;;
28074;SDS011;15385;51.088;6.572;2023-04-15T02:02:15;9.70;;;5.20;;
28074;SDS011;15385;51.088;6.572;2023-04-15T02:04:46;7.35;;;4.53;;
28074;SDS011;15385;51.088;6.572;2023-04-15T02:09:48;8.93;;;4.78;;
28074;SDS011;15385;51.088;6.572;2023-04-15T02:12:19;8.00;;;4.57;;
28074;SDS011;15385;51.088;6.572;2023-04-15T02:14:50;8.90;;;4.68;;
28074;SDS011;15385;51.088;6.572;2023-04-15T02:17:20;7.18;;;4.80;;
28074;SDS011;15385;51.088;6.572;2023-04-15T02:19:51;8.60;;;5.07;;
28074;SDS011;15385;51.088;6.572;2023-04-15T02:24:52;7.03;;;4.60;;
28074;SDS011;15385;51.088;6.572;2023-04-15T02:27:23;5.22;;;3.78;;
28074;SDS011;15385;51.088;6.572;2023-04-15T02:29:53;6.50;;;3.90;;
28074;SDS011;15385;51.088;6.572;2023-04-15T02:32:24;7.70;;;4.40;;
28074;SDS011;15385;51.088;6.572;2023-04-15T02:34:55;6.35;;;4.53;;
28074;SDS011;15385;51.088;6.572;2023-04-15T02:37:25;10.75;;;4.32;;
28074;SDS011;15385;51.088;6.572;2023-04-15T02:39:57;7.88;;;4.43;;
28074;SDS011;15385;51.088;6.572;2023-04-15T02:42:28;7.82;;;4.50;;
28074;SDS011;15385;51.088;6.572;2023-04-15T02:44:59;7.07;;;4.05;;
28074;SDS011;15385;51.088;6.572;2023-04-15T02:47:30;8.65;;;4.28;;
28074;SDS011;15385;51.088;6.572;2023-04-15T02:50:03;6.85;;;4.10;;
28074;SDS011;15385;51.088;6.572;2023-04-15T02:52:34;6.32;;;4.05;;
28074;SDS011;15385;51.088;6.572;2023-04-15T02:55:05;6.82;;;4.40;;
28074;SDS011;15385;51.088;6.572;2023-04-15T02:57:37;6.78;;;4.43;;
28074;SDS011;15385;51.088;6.572;2023-04-15T03:00:08;8.98;;;4.90;;
28074;SDS011;15385;51.088;6.572;2023-04-15T03:02:40;9.00;;;4.57;;
28074;SDS011;15385;51.088;6.572;2023-04-15T03:05:12;9.55;;;5.18;;
28074;SDS011;15385;51.088;6.572;2023-04-15T03:07:43;8.65;;;4.50;;
28074;SDS011;15385;51.088;6.572;2023-04-15T03:10:14;7.63;;;4.05;;
28074;SDS011;15385;51.088;6.572;2023-04-15T03:12:44;8.20;;;3.88;;
28074;SDS011;15385;51.088;6.572;2023-04-15T03:15:15;5.95;;;4.38;;
28074;SDS011;15385;51.088;6.572;2023-04-15T03:17:46;7.68;;;4.50;;
28074;SDS011;15385;51.088;6.572;2023-04-15T03:20:18;5.57;;;4.35;;
28074;SDS011;15385;51.088;6.572;2023-04-15T03:22:49;5.65;;;4.30;;
28074;SDS011;15385;51.088;6.572;2023-04-15T03:27:50;8.60;;;4.60;;
28074;SDS011;15385;51.088;6.572;2023-04-15T03:30:21;10.90;;;4.47;;
28074;SDS011;15385;51.088;6.572;2023-04-15T03:32:51;7.18;;;4.20;;
28074;SDS011;15385;51.088;6.572;2023-04-15T03:35:22;8.55;;;4.47;;
28074;SDS011;15385;51.088;6.572;2023-04-15T03:40:23;6.40;;;4.47;;
28074;SDS011;15385;51.088;6.572;2023-04-15T03:42:53;9.93;;;4.82;;
28074;SDS011;15385;51.088;6.572;2023-04-15T03:45:24;10.32;;;4.68;;
28074;SDS011;15385;51.088;6.572;2023-04-15T03:50:25;10.20;;;5.23;;
28074;SDS011;15385;51.088;6.572;2023-04-15T03:52:56;8.57;;;4.72;;
28074;SDS011;15385;51.088;6.572;2023-04-15T03:57:57;8.20;;;4.67;;
28074;SDS011;15385;51.088;6.572;2023-04-15T04:00:28;6.47;;;4.55;;
28074;SDS011;15385;51.088;6.572;2023-04-15T04:02:58;8.95;;;5.22;;
28074;SDS011;15385;51.088;6.572;2023-04-15T04:05:29;10.15;;;5.00;;
28074;SDS011;15385;51.088;6.572;2023-04-15T04:08:00;10.45;;;5.32;;
28074;SDS011;15385;51.088;6.572;2023-04-15T04:10:31;9.30;;;5.32;;
28074;SDS011;15385;51.088;6.572;2023-04-15T04:13:01;11.27;;;5.28;;
28074;SDS011;15385;51.088;6.572;2023-04-15T04:15:32;6.20;;;4.45;;
28074;SDS011;15385;51.088;6.572;2023-04-15T04:18:03;10.30;;;5.25;;
28074;SDS011;15385;51.088;6.572;2023-04-15T04:20:33;7.97;;;5.25;;
28074;SDS011;15385;51.088;6.572;2023-04-15T04:23:04;9.02;;;4.72;;
28074;SDS011;15385;51.088;6.572;2023-04-15T04:25:35;8.75;;;5.20;;
28074;SDS011;15385;51.088;6.572;2023-04-15T04:28:06;10.60;;;5.35;;
28074;SDS011;15385;51.088;6.572;2023-04-15T04:30:37;9.30;;;5.28;;
28074;SDS011;15385;51.088;6.572;2023-04-15T04:35:38;10.60;;;5.10;;
28074;SDS011;15385;51.088;6.572;2023-04-15T04:40:39;9.95;;;5.65;;
28074;SDS011;15385;51.088;6.572;2023-04-15T04:43:10;10.27;;;5.40;;
28074;SDS011;15385;51.088;6.572;2023-04-15T04:48:11;9.82;;;5.32;;
28074;SDS011;15385;51.088;6.572;2023-04-15T04:50:43;7.30;;;4.50;;
28074;SDS011;15385;51.088;6.572;2023-04-15T04:53:14;9.65;;;5.32;;
28074;SDS011;15385;51.088;6.572;2023-04-15T04:55:45;7.47;;;4.97;;
28074;SDS011;15385;51.088;6.572;2023-04-15T04:58:15;7.50;;;5.43;;
28074;SDS011;15385;51.088;6.572;2023-04-15T05:00:46;12.20;;;6.03;;
28074;SDS011;15385;51.088;6.572;2023-04-15T05:03:16;7.53;;;5.15;;
28074;SDS011;15385;51.088;6.572;2023-04-15T05:05:47;9.38;;;5.28;;
28074;SDS011;15385;51.088;6.572;2023-04-15T05:10:48;9.97;;;5.13;;
28074;SDS011;15385;51.088;6.572;2023-04-15T05:15:50;7.20;;;5.20;;
28074;SDS011;15385;51.088;6.572;2023-04-15T05:18:21;6.70;;;4.43;;
28074;SDS011;15385;51.088;6.572;2023-04-15T05:20:52;8.23;;;5.10;;
28074;SDS011;15385;51.088;6.572;2023-04-15T05:25:53;9.30;;;5.03;;
28074;SDS011;15385;51.088;6.572;2023-04-15T05:28:23;9.68;;;5.03;;
28074;SDS011;15385;51.088;6.572;2023-04-15T05:30:54;8.07;;;5.82;;
28074;SDS011;15385;51.088;6.572;2023-04-15T05:35:56;7.70;;;5.07;;
28074;SDS011;15385;51.088;6.572;2023-04-15T05:38:26;9.63;;;5.20;;
28074;SDS011;15385;51.088;6.572;2023-04-15T05:40:57;10.57;;;6.25;;
28074;SDS011;15385;51.088;6.572;2023-04-15T05:43:28;11.48;;;5.95;;
28074;SDS011;15385;51.088;6.572;2023-04-15T05:45:59;9.65;;;6.70;;
28074;SDS011;15385;51.088;6.572;2023-04-15T05:48:30;11.18;;;7.10;;
28074;SDS011;15385;51.088;6.572;2023-04-15T05:51:00;11.98;;;6.82;;
28074;SDS011;15385;51.088;6.572;2023-04-15T05:53:31;12.35;;;6.30;;
28074;SDS011;15385;51.088;6.572;2023-04-15T05:56:02;11.60;;;6.70;;
28074;SDS011;15385;51.088;6.572;2023-04-15T05:58:32;9.45;;;6.93;;
28074;SDS011;15385;51.088;6.572;2023-04-15T06:01:03;10.15;;;7.03;;
28074;SDS011;15385;51.088;6.572;2023-04-15T06:03:34;10.77;;;7.07;;
28074;SDS011;15385;51.088;6.572;2023-04-15T06:06:05;16.15;;;8.73;;
28074;SDS011;15385;51.088;6.572;2023-04-15T06:08:36;11.65;;;7.13;;
28074;SDS011;15385;51.088;6.572;2023-04-15T06:11:07;14.20;;;7.68;;
28074;SDS011;15385;51.088;6.572;2023-04-15T06:13:37;10.23;;;6.63;;
28074;SDS011;15385;51.088;6.572;2023-04-15T06:16:08;13.00;;;7.70;;
28074;SDS011;15385;51.088;6.572;2023-04-15T06:18:39;12.20;;;7.63;;
28074;SDS011;15385;51.088;6.572;2023-04-15T06:21:09;9.73;;;7.05;;
28074;SDS011;15385;51.088;6.572;2023-04-15T06:23:40;13.00;;;8.43;;
28074;SDS011;15385;51.088;6.572;2023-04-15T06:26:11;12.38;;;8.00;;
28074;SDS011;15385;51.088;6.572;2023-04-15T06:28:41;9.95;;;7.55;;
28074;SDS011;15385;51.088;6.572;2023-04-15T06:31:12;12.02;;;7.90;;
28074;SDS011;15385;51.088;6.572;2023-04-15T06:33:43;12.27;;;7.97;;
28074;SDS011;15385;51.088;6.572;2023-04-15T06:36:14;11.77;;;7.95;;
28074;SDS011;15385;51.088;6.572;2023-04-15T06:38:45;13.07;;;8.23;;
28074;SDS011;15385;51.088;6.572;2023-04-15T06:41:16;10.23;;;7.45;;
28074;SDS011;15385;51.088;6.572;2023-04-15T06:43:47;13.13;;;7.93;;
28074;SDS011;15385;51.088;6.572;2023-04-15T06:46:17;14.55;;;9.48;;
28074;SDS011;15385;51.088;6.572;2023-04-15T06:51:18;12.97;;;8.57;;
28074;SDS011;15385;51.088;6.572;2023-04-15T06:53:49;15.02;;;8.45;;
28074;SDS011;15385;51.088;6.572;2023-04-15T06:58:50;14.13;;;8.82;;
28074;SDS011;15385;51.088;6.572;2023-04-15T07:01:21;14.32;;;9.05;;
28074;SDS011;15385;51.088;6.572;2023-04-15T07:03:52;15.40;;;9.60;;
28074;SDS011;15385;51.088;6.572;2023-04-15T07:06:23;14.25;;;10.32;;
28074;SDS011;15385;51.088;6.572;2023-04-15T07:08:53;13.95;;;10.23;;
28074;SDS011;15385;51.088;6.572;2023-04-15T07:11:25;13.32;;;9.57;;
28074;SDS011;15385;51.088;6.572;2023-04-15T07:13:56;13.88;;;10.75;;
28074;SDS011;15385;51.088;6.572;2023-04-15T07:16:28;14.57;;;10.30;;
28074;SDS011;15385;51.088;6.572;2023-04-15T07:18:58;12.82;;;10.30;;
28074;SDS011;15385;51.088;6.572;2023-04-15T07:21:29;18.52;;;11.98;;
28074;SDS011;15385;51.088;6.572;2023-04-15T07:23:59;17.88;;;11.60;;
28074;SDS011;15385;51.088;6.572;2023-04-15T07:26:30;15.50;;;9.90;;
28074;SDS011;15385;51.088;6.572;2023-04-15T07:29:01;17.83;;;10.95;;
28074;SDS011;15385;51.088;6.572;2023-04-15T07:31:31;16.00;;;12.27;;
28074;SDS011;15385;51.088;6.572;2023-04-15T07:34:02;16.42;;;10.57;;
28074;SDS011;15385;51.088;6.572;2023-04-15T07:36:34;15.00;;;10.90;;
28074;SDS011;15385;51.088;6.572;2023-04-15T07:39:04;15.70;;;10.95;;
28074;SDS011;15385;51.088;6.572;2023-04-15T07:41:35;12.65;;;9.85;;
28074;SDS011;15385;51.088;6.572;2023-04-15T07:44:06;13.90;;;10.82;;
28074;SDS011;15385;51.088;6.572;2023-04-15T07:46:36;14.68;;;10.15;;
28074;SDS011;15385;51.088;6.572;2023-04-15T07:49:07;14.88;;;10.85;;
28074;SDS011;15385;51.088;6.572;2023-04-15T07:51:38;13.70;;;10.95;;
28074;SDS011;15385;51.088;6.572;2023-04-15T07:54:08;13.40;;;10.38;;
28074;SDS011;15385;51.088;6.572;2023-04-15T07:56:39;12.85;;;10.05;;
28074;SDS011;15385;51.088;6.572;2023-04-15T07:59:10;13.07;;;10.50;;
28074;SDS011;15385;51.088;6.572;2023-04-15T08:01:40;11.77;;;9.23;;
28074;SDS011;15385;51.088;6.572;2023-04-15T08:04:11;12.68;;;10.00;;
28074;SDS011;15385;51.088;6.572;2023-04-15T08:06:42;12.27;;;9.50;;
28074;SDS011;15385;51.088;6.572;2023-04-15T08:09:13;11.57;;;8.75;;
28074;SDS011;15385;51.088;6.572;2023-04-15T08:11:43;11.85;;;9.55;;
28074;SDS011;15385;51.088;6.572;2023-04-15T08:14:14;13.73;;;9.00;;
28074;SDS011;15385;51.088;6.572;2023-04-15T08:16:44;11.77;;;9.27;;
28074;SDS011;15385;51.088;6.572;2023-04-15T08:19:15;13.77;;;9.07;;
28074;SDS011;15385;51.088;6.572;2023-04-15T08:21:46;11.38;;;8.15;;
28074;SDS011;15385;51.088;6.572;2023-04-15T08:24:17;9.55;;;7.90;;
28074;SDS011;15385;51.088;6.572;2023-04-15T08:26:47;10.27;;;7.72;;
28074;SDS011;15385;51.088;6.572;2023-04-15T08:29:18;5.97;;;4.70;;
28074;SDS011;15385;51.088;6.572;2023-04-15T08:31:49;6.63;;;4.63;;
28074;SDS011;15385;51.088;6.572;2023-04-15T08:34:19;7.40;;;4.75;;
28074;SDS011;15385;51.088;6.572;2023-04-15T08:36:50;6.72;;;4.22;;
28074;SDS011;15385;51.088;6.572;2023-04-15T08:39:20;5.20;;;3.90;;
28074;SDS011;15385;51.088;6.572;2023-04-15T08:41:55;6.38;;;4.13;;
28074;SDS011;15385;51.088;6.572;2023-04-15T08:44:34;7.07;;;5.00;;
28074;SDS011;15385;51.088;6.572;2023-04-15T08:47:07;8.23;;;5.20;;
28074;SDS011;15385;51.088;6.572;2023-04-15T08:49:39;7.05;;;5.38;;
28074;SDS011;15385;51.088;6.572;2023-04-15T08:52:11;5.75;;;4.57;;
28074;SDS011;15385;51.088;6.572;2023-04-15T08:54:43;10.15;;;4.32;;
28074;SDS011;15385;51.088;6.572;2023-04-15T08:57:13;4.93;;;4.43;;
28074;SDS011;15385;51.088;6.572;2023-04-15T08:59:45;5.65;;;4.10;;
28074;SDS011;15385;51.088;6.572;2023-04-15T09:02:16;8.50;;;4.32;;
28074;SDS011;15385;51.088;6.572;2023-04-15T09:04:47;7.00;;;4.10;;
28074;SDS011;15385;51.088;6.572;2023-04-15T09:07:18;6.97;;;4.25;;
28074;SDS011;15385;51.088;6.572;2023-04-15T09:09:48;6.57;;;4.00;;
28074;SDS011;15385;51.088;6.572;2023-04-15T09:12:20;8.13;;;4.00;;
28074;SDS011;15385;51.088;6.572;2023-04-15T09:14:51;7.00;;;4.35;;
28074;SDS011;15385;51.088;6.572;2023-04-15T09:17:22;4.80;;;3.58;;
28074;SDS011;15385;51.088;6.572;2023-04-15T09:22:39;6.72;;;3.80;;
28074;SDS011;15385;51.088;6.572;2023-04-15T09:27:51;7.72;;;5.50;;
28074;SDS011;15385;51.088;6.572;2023-04-15T09:30:26;10.60;;;5.15;;
28074;SDS011;15385;51.088;6.572;2023-04-15T09:32:58;8.82;;;6.35;;
28074;SDS011;15385;51.088;6.572;2023-04-15T09:35:37;9.45;;;6.03;;
28074;SDS011;15385;51.088;6.572;2023-04-15T09:38:08;8.52;;;5.60;;
28074;SDS011;15385;51.088;6.572;2023-04-15T09:40:40;5.90;;;3.97;;
28074;SDS011;15385;51.088;6.572;2023-04-15T09:43:11;7.75;;;4.35;;
28074;SDS011;15385;51.088;6.572;2023-04-15T09:45:50;7.75;;;3.55;;
28074;SDS011;15385;51.088;6.572;2023-04-15T09:48:22;4.60;;;2.40;;
28074;SDS011;15385;51.088;6.572;2023-04-15T09:50:59;4.10;;;2.90;;
28074;SDS011;15385;51.088;6.572;2023-04-15T09:53:32;6.30;;;3.15;;
28074;SDS011;15385;51.088;6.572;2023-04-15T09:56:05;4.28;;;3.17;;
28074;SDS011;15385;51.088;6.572;2023-04-15T09:58:37;4.72;;;3.10;;
28074;SDS011;15385;51.088;6.572;2023-04-15T10:01:10;5.70;;;3.20;;
28074;SDS011;15385;51.088;6.572;2023-04-15T10:03:41;5.40;;;3.47;;
28074;SDS011;15385;51.088;6.572;2023-04-15T10:06:12;6.20;;;3.45;;
28074;SDS011;15385;51.088;6.572;2023-04-15T10:08:44;6.75;;;3.15;;
28074;SDS011;15385;51.088;6.572;2023-04-15T10:11:17;4.55;;;3.55;;
28074;SDS011;15385;51.088;6.572;2023-04-15T10:13:50;4.75;;;3.50;;
28074;SDS011;15385;51.088;6.572;2023-04-15T10:16:22;9.25;;;3.80;;
28074;SDS011;15385;51.088;6.572;2023-04-15T10:18:57;3.40;;;2.67;;
28074;SDS011;15385;51.088;6.572;2023-04-15T10:21:31;3.17;;;2.15;;
28074;SDS011;15385;51.088;6.572;2023-04-15T10:24:02;3.72;;;2.63;;
28074;SDS011;15385;51.088;6.572;2023-04-15T10:26:33;3.22;;;2.50;;
28074;SDS011;15385;51.088;6.572;2023-04-15T10:29:04;4.13;;;3.03;;
28074;SDS011;15385;51.088;6.572;2023-04-15T10:31:35;3.70;;;3.10;;
28074;SDS011;15385;51.088;6.572;2023-04-15T10:34:07;3.63;;;2.65;;
28074;SDS011;15385;51.088;6.572;2023-04-15T10:36:38;2.88;;;2.58;;
28074;SDS011;15385;51.088;6.572;2023-04-15T10:42:16;2.42;;;2.17;;
28074;SDS011;15385;51.088;6.572;2023-04-15T10:44:49;4.85;;;2.58;;
28074;SDS011;15385;51.088;6.572;2023-04-15T10:47:20;3.33;;;2.72;;
28074;SDS011;15385;51.088;6.572;2023-04-15T10:49:56;5.18;;;2.60;;
28074;SDS011;15385;51.088;6.572;2023-04-15T10:52:29;3.83;;;3.28;;
28074;SDS011;15385;51.088;6.572;2023-04-15T10:55:11;3.70;;;3.17;;
28074;SDS011;15385;51.088;6.572;2023-04-15T10:57:48;4.28;;;3.33;;
28074;SDS011;15385;51.088;6.572;2023-04-15T11:00:24;4.88;;;2.95;;
28074;SDS011;15385;51.088;6.572;2023-04-15T11:02:56;4.40;;;3.20;;
28074;SDS011;15385;51.088;6.572;2023-04-15T11:08:11;3.70;;;3.40;;
28074;SDS011;15385;51.088;6.572;2023-04-15T11:13:17;7.55;;;5.28;;
28074;SDS011;15385;51.088;6.572;2023-04-15T11:15:54;4.60;;;4.20;;
28074;SDS011;15385;51.088;6.572;2023-04-15T11:18:27;4.47;;;3.47;;
28074;SDS011;15385;51.088;6.572;2023-04-15T11:21:03;6.38;;;3.17;;
28074;SDS011;15385;51.088;6.572;2023-04-15T11:23:40;4.47;;;3.55;;
28074;SDS011;15385;51.088;6.572;2023-04-15T11:26:15;4.30;;;3.50;;
28074;SDS011;15385;51.088;6.572;2023-04-15T11:28:46;3.88;;;3.35;;
28074;SDS011;15385;51.088;6.572;2023-04-15T11:31:17;3.60;;;3.30;;
28074;SDS011;15385;51.088;6.572;2023-04-15T11:33:56;3.15;;;2.70;;
28074;SDS011;15385;51.088;6.572;2023-04-15T11:36:28;5.72;;;2.85;;
28074;SDS011;15385;51.088;6.572;2023-04-15T11:39:00;3.72;;;2.80;;
28074;SDS011;15385;51.088;6.572;2023-04-15T11:41:31;3.13;;;2.83;;
28074;SDS011;15385;51.088;6.572;2023-04-15T11:44:02;3.03;;;2.70;;
28074;SDS011;15385;51.088;6.572;2023-04-15T11:46:32;5.07;;;3.33;;
28074;SDS011;15385;51.088;6.572;2023-04-15T11:49:03;3.85;;;2.72;;
28074;SDS011;15385;51.088;6.572;2023-04-15T11:51:34;3.85;;;3.13;;
28074;SDS011;15385;51.088;6.572;2023-04-15T11:54:05;4.05;;;3.47;;
28074;SDS011;15385;51.088;6.572;2023-04-15T11:56:35;5.57;;;3.70;;
28074;SDS011;15385;51.088;6.572;2023-04-15T11:59:06;4.50;;;3.47;;
28074;SDS011;15385;51.088;6.572;2023-04-15T12:01:37;6.10;;;4.25;;
28074;SDS011;15385;51.088;6.572;2023-04-15T12:04:14;5.28;;;3.55;;
28074;SDS011;15385;51.088;6.572;2023-04-15T12:06:51;3.72;;;3.20;;
28074;SDS011;15385;51.088;6.572;2023-04-15T12:09:21;4.07;;;3.45;;
28074;SDS011;15385;51.088;6.572;2023-04-15T12:11:55;4.57;;;3.85;;
28074;SDS011;15385;51.088;6.572;2023-04-15T12:14:27;4.43;;;3.58;;
28074;SDS011;15385;51.088;6.572;2023-04-15T12:17:00;3.78;;;3.42;;
28074;SDS011;15385;51.088;6.572;2023-04-15T12:22:12;4.40;;;2.67;;
28074;SDS011;15385;51.088;6.572;2023-04-15T12:24:44;3.10;;;2.47;;
28074;SDS011;15385;51.088;6.572;2023-04-15T12:27:18;3.78;;;3.28;;
28074;SDS011;15385;51.088;6.572;2023-04-15T12:29:50;3.08;;;2.55;;
28074;SDS011;15385;51.088;6.572;2023-04-15T12:32:35;4.38;;;3.42;;
28074;SDS011;15385;51.088;6.572;2023-04-15T12:35:06;5.07;;;4.18;;
28074;SDS011;15385;51.088;6.572;2023-04-15T12:37:37;5.78;;;4.35;;
28074;SDS011;15385;51.088;6.572;2023-04-15T12:40:07;4.43;;;3.60;;
28074;SDS011;15385;51.088;6.572;2023-04-15T12:42:38;4.45;;;3.80;;
28074;SDS011;15385;51.088;6.572;2023-04-15T12:45:09;4.85;;;4.35;;
28074;SDS011;15385;51.088;6.572;2023-04-15T12:47:40;5.45;;;4.18;;
28074;SDS011;15385;51.088;6.572;2023-04-15T12:50:11;4.97;;;3.35;;
28074;SDS011;15385;51.088;6.572;2023-04-15T12:52:41;4.47;;;3.65;;
28074;SDS011;15385;51.088;6.572;2023-04-15T12:55:12;6.65;;;4.55;;
28074;SDS011;15385;51.088;6.572;2023-04-15T12:57:42;4.65;;;3.63;;
28074;SDS011;15385;51.088;6.572;2023-04-15T13:00:13;4.07;;;3.45;;
28074;SDS011;15385;51.088;6.572;2023-04-15T13:02:44;3.72;;;3.33;;
28074;SDS011;15385;51.088;6.572;2023-04-15T13:05:16;4.88;;;3.45;;
28074;SDS011;15385;51.088;6.572;2023-04-15T13:07:47;6.05;;;3.78;;
28074;SDS011;15385;51.088;6.572;2023-04-15T13:10:17;4.82;;;3.60;;
28074;SDS011;15385;51.088;6.572;2023-04-15T13:12:48;4.90;;;3.20;;
28074;SDS011;15385;51.088;6.572;2023-04-15T13:15:21;6.25;;;2.97;;
28074;SDS011;15385;51.088;6.572;2023-04-15T13:17:52;4.38;;;2.65;;
28074;SDS011;15385;51.088;6.572;2023-04-15T13:20:23;3.40;;;2.78;;
28074;SDS011;15385;51.088;6.572;2023-04-15T13:22:55;3.05;;;2.50;;
28074;SDS011;15385;51.088;6.572;2023-04-15T13:25:26;3.75;;;1.90;;
28074;SDS011;15385;51.088;6.572;2023-04-15T13:27:57;3.13;;;2.30;;
28074;SDS011;15385;51.088;6.572;2023-04-15T13:30:27;4.20;;;2.35;;
28074;SDS011;15385;51.088;6.572;2023-04-15T13:32:58;2.67;;;2.40;;
28074;SDS011;15385;51.088;6.572;2023-04-15T13:35:29;3.17;;;2.50;;
28074;SDS011;15385;51.088;6.572;2023-04-15T13:38:00;4.00;;;2.70;;
28074;SDS011;15385;51.088;6.572;2023-04-15T13:40:31;2.63;;;2.40;;
28074;SDS011;15385;51.088;6.572;2023-04-15T13:43:01;5.30;;;3.50;;
28074;SDS011;15385;51.088;6.572;2023-04-15T13:45:32;5.03;;;3.17;;
28074;SDS011;15385;51.088;6.572;2023-04-15T13:48:03;4.93;;;2.92;;
28074;SDS011;15385;51.088;6.572;2023-04-15T13:50:34;5.32;;;3.13;;
28074;SDS011;15385;51.088;6.572;2023-04-15T13:53:04;6.30;;;3.85;;
28074;SDS011;15385;51.088;6.572;2023-04-15T13:55:35;4.72;;;2.88;;
28074;SDS011;15385;51.088;6.572;2023-04-15T13:58:08;3.63;;;2.95;;
28074;SDS011;15385;51.088;6.572;2023-04-15T14:00:38;3.75;;;2.92;;
28074;SDS011;15385;51.088;6.572;2023-04-15T14:03:09;5.10;;;3.55;;
28074;SDS011;15385;51.088;6.572;2023-04-15T14:05:40;5.00;;;2.90;;
28074;SDS011;15385;51.088;6.572;2023-04-15T14:08:11;4.13;;;3.15;;
28074;SDS011;15385;51.088;6.572;2023-04-15T14:10:41;3.38;;;2.97;;
28074;SDS011;15385;51.088;6.572;2023-04-15T14:13:15;3.80;;;3.08;;
28074;SDS011;15385;51.088;6.572;2023-04-15T14:15:45;6.13;;;2.72;;
28074;SDS011;15385;51.088;6.572;2023-04-15T14:18:16;4.68;;;2.63;;
28074;SDS011;15385;51.088;6.572;2023-04-15T14:20:47;5.63;;;3.47;;
28074;SDS011;15385;51.088;6.572;2023-04-15T14:23:17;4.25;;;3.13;;
28074;SDS011;15385;51.088;6.572;2023-04-15T14:25:49;5.47;;;3.42;;
28074;SDS011;15385;51.088;6.572;2023-04-15T14:28:20;4.13;;;2.95;;
28074;SDS011;15385;51.088;6.572;2023-04-15T14:30:51;4.05;;;2.55;;
28074;SDS011;15385;51.088;6.572;2023-04-15T14:33:22;5.95;;;3.15;;
28074;SDS011;15385;51.088;6.572;2023-04-15T14:35:53;5.03;;;2.90;;
28074;SDS011;15385;51.088;6.572;2023-04-15T14:38:23;4.38;;;2.58;;
28074;SDS011;15385;51.088;6.572;2023-04-15T14:40:54;4.35;;;3.28;;
28074;SDS011;15385;51.088;6.572;2023-04-15T14:43:24;5.57;;;4.00;;
28074;SDS011;15385;51.088;6.572;2023-04-15T14:45:55;6.40;;;3.22;;
28074;SDS011;15385;51.088;6.572;2023-04-15T14:48:26;6.90;;;3.65;;
28074;SDS011;15385;51.088;6.572;2023-04-15T14:50:58;5.70;;;3.55;;
28074;SDS011;15385;51.088;6.572;2023-04-15T14:53:28;6.03;;;3.42;;
28074;SDS011;15385;51.088;6.572;2023-04-15T14:55:59;3.80;;;3.15;;
28074;SDS011;15385;51.088;6.572;2023-04-15T14:58:30;5.93;;;4.07;;
28074;SDS011;15385;51.088;6.572;2023-04-15T15:01:02;4.30;;;3.05;;
28074;SDS011;15385;51.088;6.572;2023-04-15T15:03:33;6.20;;;3.28;;
28074;SDS011;15385;51.088;6.572;2023-04-15T15:06:03;5.35;;;3.67;;
28074;SDS011;15385;51.088;6.572;2023-04-15T15:08:34;4.45;;;3.38;;
28074;SDS011;15385;51.088;6.572;2023-04-15T15:11:06;4.35;;;2.58;;
28074;SDS011;15385;51.088;6.572;2023-04-15T15:13:36;3.92;;;2.80;;
28074;SDS011;15385;51.088;6.572;2023-04-15T15:16:07;2.67;;;2.30;;
28074;SDS011;15385;51.088;6.572;2023-04-15T15:18:38;5.80;;;3.20;;
28074;SDS011;15385;51.088;6.572;2023-04-15T15:21:09;3.83;;;2.80;;
28074;SDS011;15385;51.088;6.572;2023-04-15T15:23:40;3.53;;;2.50;;
28074;SDS011;15385;51.088;6.572;2023-04-15T15:26:11;5.30;;;2.97;;
28074;SDS011;15385;51.088;6.572;2023-04-15T15:28:41;4.95;;;2.92;;
28074;SDS011;15385;51.088;6.572;2023-04-15T15:31:13;5.35;;;2.85;;
28074;SDS011;15385;51.088;6.572;2023-04-15T15:33:43;5.68;;;2.63;;
28074;SDS011;15385;51.088;6.572;2023-04-15T15:36:14;2.92;;;2.10;;
28074;SDS011;15385;51.088;6.572;2023-04-15T15:38:45;5.15;;;2.30;;
28074;SDS011;15385;51.088;6.572;2023-04-15T15:41:16;3.70;;;2.42;;
28074;SDS011;15385;51.088;6.572;2023-04-15T15:43:46;3.28;;;2.20;;
28074;SDS011;15385;51.088;6.572;2023-04-15T15:46:17;3.78;;;2.15;;
28074;SDS011;15385;51.088;6.572;2023-04-15T15:48:48;5.13;;;2.33;;
28074;SDS011;15385;51.088;6.572;2023-04-15T15:51:19;3.22;;;2.60;;
28074;SDS011;15385;51.088;6.572;2023-04-15T15:53:49;2.50;;;2.10;;
28074;SDS011;15385;51.088;6.572;2023-04-15T15:56:20;3.65;;;2.67;;
28074;SDS011;15385;51.088;6.572;2023-04-15T15:58:51;3.25;;;2.40;;
28074;SDS011;15385;51.088;6.572;2023-04-15T16:01:22;3.75;;;2.33;;
28074;SDS011;15385;51.088;6.572;2023-04-15T16:03:52;3.45;;;2.10;;
28074;SDS011;15385;51.088;6.572;2023-04-15T16:06:23;5.20;;;2.47;;
28074;SDS011;15385;51.088;6.572;2023-04-15T16:08:53;3.75;;;2.50;;
28074;SDS011;15385;51.088;6.572;2023-04-15T16:11:24;3.45;;;2.45;;
28074;SDS011;15385;51.088;6.572;2023-04-15T16:13:55;4.75;;;1.88;;
28074;SDS011;15385;51.088;6.572;2023-04-15T16:16:25;3.40;;;1.88;;